sensor_id;sensor_type;location;lat;lon;timestamp;pressure;altitude;pressure_sealevel;temperature;humidity
37710;BME280;60223;34.854;-92.408;2024-03-08T00:00:30;99998.46;;;24.51;29.76
37710;BME280;60223;34.854;-92.408;2024-03-08T00:02:55;99997.72;;;24.37;29.94
37710;BME280;60223;34.854;-92.408;2024-03-08T00:05:21;100007.82;;;24.33;29.92
37710;BME280;60223;34.854;-92.408;2024-03-08T00:07:46;100029.31;;;24.58;29.86
37710;BME280;60223;34.854;-92.408;2024-03-08T00:10:13;100048.33;;;24.28;29.97
37710;BME280;60223;34.854;-92.408;2024-03-08T00:12:38;100050.67;;;24.31;29.98
37710;BME280;60223;34.854;-92.408;2024-03-08T00:15:03;100045.87;;;24.79;29.91
37710;BME280;60223;34.854;-92.408;2024-03-08T00:17:29;100047.15;;;24.53;29.99
37710;BME280;60223;34.854;-92.408;2024-03-08T00:19:55;100028.88;;;24.54;29.99
37710;BME280;60223;34.854;-92.408;2024-03-08T00:22:21;100033.34;;;24.22;30.11
37710;BME280;60223;34.854;-92.408;2024-03-08T00:24:43;100042.34;;;24.27;30.01
37710;BME280;60223;34.854;-92.408;2024-03-08T00:27:11;100049.00;;;24.45;30.11
37710;BME280;60223;34.854;-92.408;2024-03-08T00:29:37;100042.88;;;23.95;30.05
37710;BME280;60223;34.854;-92.408;2024-03-08T00:32:03;100036.39;;;24.13;30.14
37710;BME280;60223;34.854;-92.408;2024-03-08T00:34:28;100038.94;;;25.90;28.82
37710;BME280;60223;34.854;-92.408;2024-03-08T00:36:52;100022.59;;;25.72;28.66
37710;BME280;60223;34.854;-92.408;2024-03-08T00:39:20;100018.67;;;27.44;27.09
37710;BME280;60223;34.854;-92.408;2024-03-08T00:41:45;100003.70;;;27.32;27.28
37710;BME280;60223;34.854;-92.408;2024-03-08T00:44:11;100005.88;;;27.76;26.73
37710;BME280;60223;34.854;-92.408;2024-03-08T00:46:34;100037.04;;;28.03;26.47
37710;BME280;60223;34.854;-92.408;2024-03-08T00:49:02;100028.54;;;28.01;26.39
37710;BME280;60223;34.854;-92.408;2024-03-08T00:51:27;100066.03;;;27.54;26.86
37710;BME280;60223;34.854;-92.408;2024-03-08T00:53:53;100063.58;;;25.61;28.71
37710;BME280;60223;34.854;-92.408;2024-03-08T00:56:17;100044.47;;;25.01;29.40
37710;BME280;60223;34.854;-92.408;2024-03-08T00:58:44;100024.89;;;24.62;29.82
37710;BME280;60223;34.854;-92.408;2024-03-08T01:01:09;100015.87;;;24.57;29.93
37710;BME280;60223;34.854;-92.408;2024-03-08T01:03:36;100040.99;;;24.48;30.04
37710;BME280;60223;34.854;-92.408;2024-03-08T01:05:58;100066.48;;;24.44;30.13
37710;BME280;60223;34.854;-92.408;2024-03-08T01:08:28;100083.40;;;24.46;30.13
37710;BME280;60223;34.854;-92.408;2024-03-08T01:10:52;100084.08;;;24.46;30.10
37710;BME280;60223;34.854;-92.408;2024-03-08T01:13:18;100093.21;;;24.49;30.07
37710;BME280;60223;34.854;-92.408;2024-03-08T01:15:41;100089.06;;;24.48;30.13
37710;BME280;60223;34.854;-92.408;2024-03-08T01:18:09;100096.57;;;24.49;30.11
37710;BME280;60223;34.854;-92.408;2024-03-08T01:20:35;100087.67;;;24.49;30.11
37710;BME280;60223;34.854;-92.408;2024-03-08T01:23:00;100104.35;;;24.45;30.13
37710;BME280;60223;34.854;-92.408;2024-03-08T01:25:26;100096.55;;;24.68;30.17
37710;BME280;60223;34.854;-92.408;2024-03-08T01:27:51;100095.58;;;24.42;30.18
37710;BME280;60223;34.854;-92.408;2024-03-08T01:30:17;100105.24;;;24.38;30.20
37710;BME280;60223;34.854;-92.408;2024-03-08T01:32:41;100104.31;;;24.29;30.30
37710;BME280;60223;34.854;-92.408;2024-03-08T01:35:09;100108.77;;;24.57;30.26
37710;BME280;60223;34.854;-92.408;2024-03-08T01:37:34;100092.92;;;24.34;30.28
37710;BME280;60223;34.854;-92.408;2024-03-08T01:40:00;100102.57;;;24.91;30.17
37710;BME280;60223;34.854;-92.408;2024-03-08T01:42:24;100088.65;;;24.56;30.25
37710;BME280;60223;34.854;-92.408;2024-03-08T01:44:51;100081.68;;;24.27;30.33
37710;BME280;60223;34.854;-92.408;2024-03-08T01:47:16;100075.15;;;24.21;30.37
37710;BME280;60223;34.854;-92.408;2024-03-08T01:49:42;100081.14;;;24.25;30.27
37710;BME280;60223;34.854;-92.408;2024-03-08T01:52:08;100070.23;;;24.37;30.22
37710;BME280;60223;34.854;-92.408;2024-03-08T01:54:34;100065.19;;;24.26;30.28
37710;BME280;60223;34.854;-92.408;2024-03-08T01:56:59;100064.79;;;24.56;30.20
37710;BME280;60223;34.854;-92.408;2024-03-08T01:59:24;100067.58;;;24.57;30.23
37710;BME280;60223;34.854;-92.408;2024-03-08T02:01:50;100090.55;;;25.55;29.20
37710;BME280;60223;34.854;-92.408;2024-03-08T02:04:15;100094.35;;;25.71;28.85
37710;BME280;60223;34.854;-92.408;2024-03-08T02:06:41;100070.29;;;27.82;27.02
37710;BME280;60223;34.854;-92.408;2024-03-08T02:09:06;100085.30;;;27.69;27.08
37710;BME280;60223;34.854;-92.408;2024-03-08T02:11:32;100114.80;;;27.65;26.78
37710;BME280;60223;34.854;-92.408;2024-03-08T02:13:58;100151.29;;;28.27;26.61
37710;BME280;60223;34.854;-92.408;2024-03-08T02:16:23;100157.92;;;27.95;26.44
37710;BME280;60223;34.854;-92.408;2024-03-08T02:18:49;100163.59;;;28.43;26.44
37710;BME280;60223;34.854;-92.408;2024-03-08T02:21:12;100161.57;;;26.28;28.26
37710;BME280;60223;34.854;-92.408;2024-03-08T02:23:40;100155.73;;;25.08;29.56
37710;BME280;60223;34.854;-92.408;2024-03-08T02:26:06;100135.09;;;24.40;30.04
37710;BME280;60223;34.854;-92.408;2024-03-08T02:28:31;100146.85;;;24.66;30.04
37710;BME280;60223;34.854;-92.408;2024-03-08T02:30:57;100156.22;;;24.58;30.15
37710;BME280;60223;34.854;-92.408;2024-03-08T02:33:25;100142.54;;;24.35;30.09
37710;BME280;60223;34.854;-92.408;2024-03-08T02:35:49;100144.49;;;24.71;29.99
37710;BME280;60223;34.854;-92.408;2024-03-08T02:38:11;100148.40;;;24.43;30.06
37710;BME280;60223;34.854;-92.408;2024-03-08T02:40:39;100143.48;;;24.58;30.15
37710;BME280;60223;34.854;-92.408;2024-03-08T02:43:05;100126.38;;;24.53;30.19
37710;BME280;60223;34.854;-92.408;2024-03-08T02:45:31;100102.50;;;24.55;30.16
37710;BME280;60223;34.854;-92.408;2024-03-08T02:47:56;100098.38;;;24.46;30.23
37710;BME280;60223;34.854;-92.408;2024-03-08T02:50:22;100098.83;;;24.43;30.28
37710;BME280;60223;34.854;-92.408;2024-03-08T02:52:47;100097.55;;;24.65;30.04
37710;BME280;60223;34.854;-92.408;2024-03-08T02:55:12;100089.38;;;24.52;30.16
37710;BME280;60223;34.854;-92.408;2024-03-08T02:57:38;100105.20;;;24.54;30.15
37710;BME280;60223;34.854;-92.408;2024-03-08T03:00:04;100127.03;;;24.63;30.06
37710;BME280;60223;34.854;-92.408;2024-03-08T03:02:29;100151.02;;;24.73;30.20
37710;BME280;60223;34.854;-92.408;2024-03-08T03:04:55;100132.92;;;24.73;29.97
37710;BME280;60223;34.854;-92.408;2024-03-08T03:07:22;100136.21;;;24.93;30.02
37710;BME280;60223;34.854;-92.408;2024-03-08T03:09:46;100126.19;;;26.69;27.98
37710;BME280;60223;34.854;-92.408;2024-03-08T03:12:12;100134.59;;;26.64;27.78
37710;BME280;60223;34.854;-92.408;2024-03-08T03:14:38;100141.80;;;27.14;27.72
37710;BME280;60223;34.854;-92.408;2024-03-08T03:17:04;100103.80;;;28.12;26.60
37710;BME280;60223;34.854;-92.408;2024-03-08T03:19:27;100079.77;;;27.84;26.97
37710;BME280;60223;34.854;-92.408;2024-03-08T03:21:57;100083.90;;;28.13;26.56
37710;BME280;60223;34.854;-92.408;2024-03-08T03:24:20;100072.00;;;28.32;26.36
37710;BME280;60223;34.854;-92.408;2024-03-08T03:34:03;100053.02;;;24.90;29.86
37710;BME280;60223;34.854;-92.408;2024-03-08T03:36:28;100052.47;;;24.96;30.07
37710;BME280;60223;34.854;-92.408;2024-03-08T03:38:53;100056.01;;;24.65;30.14
37710;BME280;60223;34.854;-92.408;2024-03-08T03:41:17;100050.00;;;24.66;30.16
37710;BME280;60223;34.854;-92.408;2024-03-08T03:43:46;100056.31;;;24.73;30.08
37710;BME280;60223;34.854;-92.408;2024-03-08T03:46:10;100074.55;;;24.95;30.13
37710;BME280;60223;34.854;-92.408;2024-03-08T03:48:36;100105.21;;;24.63;30.21
37710;BME280;60223;34.854;-92.408;2024-03-08T03:51:02;100142.69;;;24.65;30.20
37710;BME280;60223;34.854;-92.408;2024-03-08T03:53:25;100162.32;;;24.82;30.27
37710;BME280;60223;34.854;-92.408;2024-03-08T03:55:53;100153.84;;;24.95;30.13
37710;BME280;60223;34.854;-92.408;2024-03-08T03:58:18;100150.17;;;24.62;29.98
37710;BME280;60223;34.854;-92.408;2024-03-08T04:00:44;100150.49;;;24.70;30.12
37710;BME280;60223;34.854;-92.408;2024-03-08T04:03:10;100143.71;;;24.77;30.04
37710;BME280;60223;34.854;-92.408;2024-03-08T04:05:34;100109.92;;;24.87;29.93
37710;BME280;60223;34.854;-92.408;2024-03-08T04:08:01;100082.75;;;25.01;30.02
37710;BME280;60223;34.854;-92.408;2024-03-08T04:10:27;100064.03;;;24.87;30.12
37710;BME280;60223;34.854;-92.408;2024-03-08T04:12:52;100052.95;;;24.63;30.13
37710;BME280;60223;34.854;-92.408;2024-03-08T04:15:18;100072.15;;;24.58;30.16
37710;BME280;60223;34.854;-92.408;2024-03-08T04:17:41;100092.86;;;24.46;30.28
37710;BME280;60223;34.854;-92.408;2024-03-08T04:20:10;100097.67;;;24.39;30.10
37710;BME280;60223;34.854;-92.408;2024-03-08T04:22:35;100102.14;;;24.76;29.97
37710;BME280;60223;34.854;-92.408;2024-03-08T04:25:00;100112.71;;;24.43;30.30
37710;BME280;60223;34.854;-92.408;2024-03-08T04:27:25;100119.31;;;24.68;30.27
37710;BME280;60223;34.854;-92.408;2024-03-08T04:29:52;100116.46;;;24.71;30.29
37710;BME280;60223;34.854;-92.408;2024-03-08T04:32:17;100104.32;;;24.92;29.87
37710;BME280;60223;34.854;-92.408;2024-03-08T04:39:34;100082.09;;;24.70;30.28
37710;BME280;60223;34.854;-92.408;2024-03-08T04:42:02;100065.52;;;27.09;27.88
37710;BME280;60223;34.854;-92.408;2024-03-08T04:44:26;100057.80;;;27.22;27.42
37710;BME280;60223;34.854;-92.408;2024-03-08T04:46:50;100059.03;;;25.76;28.80
37710;BME280;60223;34.854;-92.408;2024-03-08T04:49:16;100055.12;;;27.69;26.91
37710;BME280;60223;34.854;-92.408;2024-03-08T04:51:42;100054.97;;;27.89;26.84
37710;BME280;60223;34.854;-92.408;2024-03-08T04:54:07;100049.13;;;28.16;26.50
37710;BME280;60223;34.854;-92.408;2024-03-08T04:56:33;100047.73;;;28.39;26.23
37710;BME280;60223;34.854;-92.408;2024-03-08T04:58:59;100039.23;;;28.05;26.34
37710;BME280;60223;34.854;-92.408;2024-03-08T05:01:24;100038.17;;;26.34;28.21
37710;BME280;60223;34.854;-92.408;2024-03-08T05:03:50;100040.90;;;25.11;29.56
37710;BME280;60223;34.854;-92.408;2024-03-08T05:06:13;100015.10;;;24.92;29.79
37710;BME280;60223;34.854;-92.408;2024-03-08T05:08:41;99991.51;;;24.86;29.85
37710;BME280;60223;34.854;-92.408;2024-03-08T05:11:07;100001.02;;;24.92;29.78
37710;BME280;60223;34.854;-92.408;2024-03-08T05:13:32;100026.88;;;24.84;29.88
37710;BME280;60223;34.854;-92.408;2024-03-08T05:15:58;100068.00;;;24.69;30.02
37710;BME280;60223;34.854;-92.408;2024-03-08T05:18:21;100028.72;;;24.79;29.97
37710;BME280;60223;34.854;-92.408;2024-03-08T05:20:50;99972.47;;;24.82;29.89
37710;BME280;60223;34.854;-92.408;2024-03-08T05:23:15;99980.86;;;24.65;30.07
37710;BME280;60223;34.854;-92.408;2024-03-08T05:25:40;99975.55;;;24.76;29.96
37710;BME280;60223;34.854;-92.408;2024-03-08T05:28:04;99977.21;;;24.64;30.06
37710;BME280;60223;34.854;-92.408;2024-03-08T05:30:32;99979.69;;;24.65;30.06
37710;BME280;60223;34.854;-92.408;2024-03-08T05:32:57;99989.19;;;25.00;29.94
37710;BME280;60223;34.854;-92.408;2024-03-08T05:35:23;99990.83;;;24.53;30.15
37710;BME280;60223;34.854;-92.408;2024-03-08T05:37:46;99973.04;;;24.70;30.00
37710;BME280;60223;34.854;-92.408;2024-03-08T05:40:14;99978.49;;;24.58;30.10
37710;BME280;60223;34.854;-92.408;2024-03-08T05:42:39;99993.34;;;24.77;30.14
37710;BME280;60223;34.854;-92.408;2024-03-08T05:45:06;99999.07;;;24.81;29.86
37710;BME280;60223;34.854;-92.408;2024-03-08T05:47:31;99987.32;;;24.37;30.30
37710;BME280;60223;34.854;-92.408;2024-03-08T05:49:54;99976.20;;;26.78;27.87
37710;BME280;60223;34.854;-92.408;2024-03-08T05:52:22;99998.50;;;27.13;27.64
37710;BME280;60223;34.854;-92.408;2024-03-08T05:54:48;100009.61;;;27.08;27.41
37710;BME280;60223;34.854;-92.408;2024-03-08T05:57:13;100001.20;;;27.87;26.75
37710;BME280;60223;34.854;-92.408;2024-03-08T05:59:39;99965.95;;;28.14;26.75
37710;BME280;60223;34.854;-92.408;2024-03-08T06:02:02;99980.67;;;28.36;26.26
37710;BME280;60223;34.854;-92.408;2024-03-08T06:04:30;100028.05;;;28.57;26.31
37710;BME280;60223;34.854;-92.408;2024-03-08T06:06:55;100075.15;;;28.29;26.39
37710;BME280;60223;34.854;-92.408;2024-03-08T06:09:22;100050.08;;;26.53;27.76
37710;BME280;60223;34.854;-92.408;2024-03-08T06:11:47;100037.86;;;25.73;29.39
37710;BME280;60223;34.854;-92.408;2024-03-08T06:14:10;100034.88;;;24.88;29.80
37710;BME280;60223;34.854;-92.408;2024-03-08T06:16:38;100056.39;;;24.66;29.82
37710;BME280;60223;34.854;-92.408;2024-03-08T06:19:04;100040.39;;;24.76;29.97
37710;BME280;60223;34.854;-92.408;2024-03-08T06:21:29;100034.12;;;24.71;30.03
37710;BME280;60223;34.854;-92.408;2024-03-08T06:23:53;100035.34;;;24.82;29.92
37710;BME280;60223;34.854;-92.408;2024-03-08T06:26:21;100046.26;;;24.77;29.95
37710;BME280;60223;34.854;-92.408;2024-03-08T06:28:46;100041.84;;;24.85;29.86
37710;BME280;60223;34.854;-92.408;2024-03-08T06:31:12;100040.44;;;24.83;29.89
37710;BME280;60223;34.854;-92.408;2024-03-08T06:33:37;100034.05;;;25.04;29.92
37710;BME280;60223;34.854;-92.408;2024-03-08T06:36:00;100027.21;;;24.73;29.98
37710;BME280;60223;34.854;-92.408;2024-03-08T06:38:28;100038.69;;;24.70;29.99
37710;BME280;60223;34.854;-92.408;2024-03-08T06:40:55;100042.09;;;24.74;29.94
37710;BME280;60223;34.854;-92.408;2024-03-08T06:43:20;100046.21;;;24.79;29.86
37710;BME280;60223;34.854;-92.408;2024-03-08T06:45:43;100048.86;;;25.09;29.82
37710;BME280;60223;34.854;-92.408;2024-03-08T06:48:11;100047.48;;;24.68;30.00
37710;BME280;60223;34.854;-92.408;2024-03-08T06:50:36;100039.92;;;24.64;29.99
37710;BME280;60223;34.854;-92.408;2024-03-08T06:53:02;100026.54;;;24.83;30.04
37710;BME280;60223;34.854;-92.408;2024-03-08T06:55:25;100025.69;;;26.82;27.84
37710;BME280;60223;34.854;-92.408;2024-03-08T06:57:50;100031.57;;;27.63;26.98
37710;BME280;60223;34.854;-92.408;2024-03-08T07:00:19;100030.63;;;26.61;27.59
37710;BME280;60223;34.854;-92.408;2024-03-08T07:02:44;100032.66;;;28.11;26.49
37710;BME280;60223;34.854;-92.408;2024-03-08T07:05:11;100027.06;;;27.96;26.66
37710;BME280;60223;34.854;-92.408;2024-03-08T07:07:35;100027.08;;;28.49;26.14
37710;BME280;60223;34.854;-92.408;2024-03-08T07:09:59;100026.25;;;28.17;26.21
37710;BME280;60223;34.854;-92.408;2024-03-08T07:12:27;100014.67;;;26.99;27.32
37710;BME280;60223;34.854;-92.408;2024-03-08T07:14:52;100006.52;;;25.46;29.13
37710;BME280;60223;34.854;-92.408;2024-03-08T07:17:18;100006.75;;;25.00;29.67
37710;BME280;60223;34.854;-92.408;2024-03-08T07:19:44;100004.81;;;25.05;29.65
37710;BME280;60223;34.854;-92.408;2024-03-08T07:22:09;100010.10;;;24.93;29.76
37710;BME280;60223;34.854;-92.408;2024-03-08T07:24:35;100001.08;;;24.48;29.75
37710;BME280;60223;34.854;-92.408;2024-03-08T07:26:58;99984.90;;;25.03;29.63
37710;BME280;60223;34.854;-92.408;2024-03-08T07:29:26;99980.80;;;24.91;29.76
37710;BME280;60223;34.854;-92.408;2024-03-08T07:31:52;99982.11;;;24.90;29.78
37710;BME280;60223;34.854;-92.408;2024-03-08T07:34:17;99978.50;;;24.90;29.76
37710;BME280;60223;34.854;-92.408;2024-03-08T07:36:42;99971.84;;;25.05;29.60
37710;BME280;60223;34.854;-92.408;2024-03-08T07:39:09;99968.50;;;24.73;29.94
37710;BME280;60223;34.854;-92.408;2024-03-08T07:41:35;99964.49;;;25.00;29.88
37710;BME280;60223;34.854;-92.408;2024-03-08T07:44:00;99945.01;;;24.85;29.78
37710;BME280;60223;34.854;-92.408;2024-03-08T07:46:24;99933.62;;;24.77;29.86
37710;BME280;60223;34.854;-92.408;2024-03-08T07:48:51;99923.99;;;24.64;29.97
37710;BME280;60223;34.854;-92.408;2024-03-08T07:51:16;99916.56;;;24.66;29.96
37710;BME280;60223;34.854;-92.408;2024-03-08T07:53:42;99910.57;;;24.64;29.96
37710;BME280;60223;34.854;-92.408;2024-03-08T07:56:08;99904.65;;;26.12;28.46
37710;BME280;60223;34.854;-92.408;2024-03-08T07:58:33;99901.73;;;28.19;26.65
37710;BME280;60223;34.854;-92.408;2024-03-08T08:00:57;99909.83;;;27.24;27.43
37710;BME280;60223;34.854;-92.408;2024-03-08T08:03:24;99908.23;;;27.85;26.69
37710;BME280;60223;34.854;-92.408;2024-03-08T08:05:50;99915.89;;;28.09;26.49
37710;BME280;60223;34.854;-92.408;2024-03-08T08:08:15;99905.26;;;28.42;26.17
37710;BME280;60223;34.854;-92.408;2024-03-08T08:10:41;99893.52;;;28.81;26.05
37710;BME280;60223;34.854;-92.408;2024-03-08T08:13:06;99884.07;;;25.96;28.54
37710;BME280;60223;34.854;-92.408;2024-03-08T08:15:33;99877.15;;;25.09;29.27
37710;BME280;60223;34.854;-92.408;2024-03-08T08:17:58;99872.87;;;25.04;29.59
37710;BME280;60223;34.854;-92.408;2024-03-08T08:20:22;99874.03;;;24.91;29.72
37710;BME280;60223;34.854;-92.408;2024-03-08T08:22:49;99878.39;;;24.96;29.67
37710;BME280;60223;34.854;-92.408;2024-03-08T08:25:15;99878.33;;;24.82;29.81
37710;BME280;60223;34.854;-92.408;2024-03-08T08:27:41;99872.16;;;25.32;29.57
37710;BME280;60223;34.854;-92.408;2024-03-08T08:30:04;99881.90;;;25.13;29.51
37710;BME280;60223;34.854;-92.408;2024-03-08T08:32:32;99881.22;;;25.06;29.55
37710;BME280;60223;34.854;-92.408;2024-03-08T08:34:56;99868.58;;;24.95;29.67
37710;BME280;60223;34.854;-92.408;2024-03-08T08:37:23;99864.78;;;24.92;29.68
37710;BME280;60223;34.854;-92.408;2024-03-08T08:39:49;99867.49;;;24.82;29.79
37710;BME280;60223;34.854;-92.408;2024-03-08T08:42:14;99860.70;;;24.79;29.81
37710;BME280;60223;34.854;-92.408;2024-03-08T08:44:40;99841.68;;;24.83;29.77
37710;BME280;60223;34.854;-92.408;2024-03-08T08:47:04;99821.97;;;24.43;29.93
37710;BME280;60223;34.854;-92.408;2024-03-08T08:49:31;99816.23;;;24.46;30.11
37710;BME280;60223;34.854;-92.408;2024-03-08T08:51:57;99833.76;;;27.41;27.18
37710;BME280;60223;34.854;-92.408;2024-03-08T08:54:23;99835.88;;;26.56;27.88
37710;BME280;60223;34.854;-92.408;2024-03-08T08:56:45;99841.79;;;27.99;26.54
37710;BME280;60223;34.854;-92.408;2024-03-08T08:59:14;99828.57;;;27.68;26.43
37710;BME280;60223;34.854;-92.408;2024-03-08T09:01:39;99812.89;;;28.57;26.03
37710;BME280;60223;34.854;-92.408;2024-03-08T09:04:05;99812.82;;;28.53;26.04
37710;BME280;60223;34.854;-92.408;2024-03-08T09:06:30;99795.44;;;26.21;28.05
37710;BME280;60223;34.854;-92.408;2024-03-08T09:08:56;99793.33;;;25.54;29.07
37710;BME280;60223;34.854;-92.408;2024-03-08T09:11:19;99804.30;;;25.20;29.44
37710;BME280;60223;34.854;-92.408;2024-03-08T09:13:48;99813.42;;;24.54;29.64
37710;BME280;60223;34.854;-92.408;2024-03-08T09:16:13;99813.59;;;25.03;29.62
37710;BME280;60223;34.854;-92.408;2024-03-08T09:18:39;99823.82;;;25.32;29.58
37710;BME280;60223;34.854;-92.408;2024-03-08T09:21:01;99832.47;;;25.11;29.54
37710;BME280;60223;34.854;-92.408;2024-03-08T09:23:30;99838.95;;;25.02;29.63
37710;BME280;60223;34.854;-92.408;2024-03-08T09:25:54;99822.03;;;25.26;29.34
37710;BME280;60223;34.854;-92.408;2024-03-08T09:28:21;99810.27;;;25.37;29.46
37710;BME280;60223;34.854;-92.408;2024-03-08T09:30:47;99812.71;;;25.23;29.38
37710;BME280;60223;34.854;-92.408;2024-03-08T09:33:10;99824.04;;;25.08;29.51
37710;BME280;60223;34.854;-92.408;2024-03-08T09:35:38;99825.90;;;25.02;29.56
37710;BME280;60223;34.854;-92.408;2024-03-08T09:38:03;99834.11;;;24.95;29.63
37710;BME280;60223;34.854;-92.408;2024-03-08T09:40:29;99851.25;;;24.88;29.70
37710;BME280;60223;34.854;-92.408;2024-03-08T09:42:55;99856.84;;;25.03;29.53
37710;BME280;60223;34.854;-92.408;2024-03-08T09:45:21;99857.06;;;24.82;29.74
37710;BME280;60223;34.854;-92.408;2024-03-08T09:47:45;99862.54;;;24.73;29.84
37710;BME280;60223;34.854;-92.408;2024-03-08T09:50:12;99865.58;;;25.72;28.63
37710;BME280;60223;34.854;-92.408;2024-03-08T09:52:37;99873.86;;;25.99;28.42
37710;BME280;60223;34.854;-92.408;2024-03-08T09:55:04;99875.48;;;27.49;26.99
37710;BME280;60223;34.854;-92.408;2024-03-08T09:57:29;99887.09;;;28.03;26.53
37710;BME280;60223;34.854;-92.408;2024-03-08T09:59:54;99890.22;;;28.54;26.04
37710;BME280;60223;34.854;-92.408;2024-03-08T10:02:24;99879.09;;;28.49;26.07
37710;BME280;60223;34.854;-92.408;2024-03-08T10:04:46;99868.81;;;27.16;27.30
37710;BME280;60223;34.854;-92.408;2024-03-08T10:07:10;99862.26;;;25.43;28.65
37710;BME280;60223;34.854;-92.408;2024-03-08T10:09:36;99866.50;;;25.18;29.41
37710;BME280;60223;34.854;-92.408;2024-03-08T10:12:03;99878.37;;;24.94;29.42
37710;BME280;60223;34.854;-92.408;2024-03-08T10:14:26;99896.50;;;24.79;29.34
37710;BME280;60223;34.854;-92.408;2024-03-08T10:16:53;99906.43;;;25.16;29.45
37710;BME280;60223;34.854;-92.408;2024-03-08T10:19:19;99912.44;;;25.15;29.47
37710;BME280;60223;34.854;-92.408;2024-03-08T10:21:49;99868.18;;;25.26;29.33
37710;BME280;60223;34.854;-92.408;2024-03-08T10:24:13;99809.44;;;24.99;29.58
37710;BME280;60223;34.854;-92.408;2024-03-08T10:26:36;99849.37;;;25.20;29.37
37710;BME280;60223;34.854;-92.408;2024-03-08T10:29:01;99879.45;;;25.13;29.42
37710;BME280;60223;34.854;-92.408;2024-03-08T10:31:26;99888.74;;;25.08;29.46
37710;BME280;60223;34.854;-92.408;2024-03-08T10:33:53;99897.33;;;25.16;29.40
37710;BME280;60223;34.854;-92.408;2024-03-08T10:36:19;99905.23;;;25.05;29.49
37710;BME280;60223;34.854;-92.408;2024-03-08T10:38:43;99901.26;;;24.92;29.63
37710;BME280;60223;34.854;-92.408;2024-03-08T10:41:09;99898.84;;;24.70;29.83
37710;BME280;60223;34.854;-92.408;2024-03-08T10:43:52;99886.34;;;25.45;28.94
37710;BME280;60223;34.854;-92.408;2024-03-08T10:46:09;99863.32;;;26.39;27.95
37710;BME280;60223;34.854;-92.408;2024-03-08T10:48:30;99874.50;;;27.59;26.86
37710;BME280;60223;34.854;-92.408;2024-03-08T10:50:49;99891.52;;;28.13;26.42
37710;BME280;60223;34.854;-92.408;2024-03-08T10:53:18;99905.25;;;28.59;25.98
37710;BME280;60223;34.854;-92.408;2024-03-08T10:55:43;99922.17;;;28.55;26.00
37710;BME280;60223;34.854;-92.408;2024-03-08T10:58:08;99931.78;;;27.14;27.12
37710;BME280;60223;34.854;-92.408;2024-03-08T11:00:34;99928.29;;;25.68;28.81
37710;BME280;60223;34.854;-92.408;2024-03-08T11:03:00;99920.71;;;25.19;29.38
37710;BME280;60223;34.854;-92.408;2024-03-08T11:05:36;99915.60;;;25.26;29.32
37710;BME280;60223;34.854;-92.408;2024-03-08T11:07:50;99918.40;;;25.18;29.41
37710;BME280;60223;34.854;-92.408;2024-03-08T11:10:20;99938.95;;;25.31;29.27
37710;BME280;60223;34.854;-92.408;2024-03-08T11:12:42;99953.99;;;25.25;29.32
37710;BME280;60223;34.854;-92.408;2024-03-08T11:15:12;99953.58;;;25.31;29.25
37710;BME280;60223;34.854;-92.408;2024-03-08T11:17:46;99952.02;;;25.09;29.44
37710;BME280;60223;34.854;-92.408;2024-03-08T11:19:59;99957.01;;;25.06;29.49
37710;BME280;60223;34.854;-92.408;2024-03-08T11:22:27;99962.64;;;25.34;29.45
37710;BME280;60223;34.854;-92.408;2024-03-08T11:24:50;99961.57;;;25.29;29.25
37710;BME280;60223;34.854;-92.408;2024-03-08T11:27:13;99947.05;;;24.90;29.65
37710;BME280;60223;34.854;-92.408;2024-03-08T11:29:42;99937.73;;;24.80;29.75
37710;BME280;60223;34.854;-92.408;2024-03-08T11:32:08;99937.16;;;24.72;29.83
37710;BME280;60223;34.854;-92.408;2024-03-08T11:34:33;99940.71;;;24.60;29.93
37710;BME280;60223;34.854;-92.408;2024-03-08T11:36:57;99944.45;;;24.65;29.90
37710;BME280;60223;34.854;-92.408;2024-03-08T11:39:25;99943.68;;;25.85;28.25
37710;BME280;60223;34.854;-92.408;2024-03-08T11:41:50;99942.85;;;26.37;28.24
37710;BME280;60223;34.854;-92.408;2024-03-08T11:44:15;99950.42;;;27.43;26.98
37710;BME280;60223;34.854;-92.408;2024-03-08T11:46:41;99952.91;;;27.99;26.52
37710;BME280;60223;34.854;-92.408;2024-03-08T11:49:04;99957.39;;;28.53;26.02
37710;BME280;60223;34.854;-92.408;2024-03-08T11:51:32;99958.54;;;28.49;26.01
37710;BME280;60223;34.854;-92.408;2024-03-08T11:53:58;99955.40;;;26.39;27.81
37710;BME280;60223;34.854;-92.408;2024-03-08T11:56:23;99953.96;;;25.78;28.71
37710;BME280;60223;34.854;-92.408;2024-03-08T11:58:53;99951.33;;;25.17;29.36
37710;BME280;60223;34.854;-92.408;2024-03-08T12:01:12;99940.91;;;25.22;29.32
37710;BME280;60223;34.854;-92.408;2024-03-08T12:03:38;99939.07;;;25.08;29.47
37710;BME280;60223;34.854;-92.408;2024-03-08T12:06:05;99930.70;;;25.10;29.22
37710;BME280;60223;34.854;-92.408;2024-03-08T12:08:31;99930.69;;;25.21;29.33
37710;BME280;60223;34.854;-92.408;2024-03-08T12:10:57;99927.15;;;25.16;29.37
37710;BME280;60223;34.854;-92.408;2024-03-08T12:13:23;99918.15;;;25.34;29.17
37710;BME280;60223;34.854;-92.408;2024-03-08T12:15:47;99916.08;;;25.05;29.22
37710;BME280;60223;34.854;-92.408;2024-03-08T12:18:13;99929.34;;;25.15;29.35
37710;BME280;60223;34.854;-92.408;2024-03-08T12:20:39;99938.15;;;25.30;29.45
37710;BME280;60223;34.854;-92.408;2024-03-08T12:23:05;99943.18;;;25.00;29.50
37710;BME280;60223;34.854;-92.408;2024-03-08T12:25:31;99933.10;;;25.46;29.04
37710;BME280;60223;34.854;-92.408;2024-03-08T12:27:56;99921.23;;;27.23;27.00
37710;BME280;60223;34.854;-92.408;2024-03-08T12:30:22;99919.03;;;26.60;27.71
37710;BME280;60223;34.854;-92.408;2024-03-08T12:32:52;99922.14;;;28.24;26.23
37710;BME280;60223;34.854;-92.408;2024-03-08T12:35:12;99918.18;;;27.70;26.56
37710;BME280;60223;34.854;-92.408;2024-03-08T12:37:39;99909.29;;;28.47;26.06